ODS645 LTFM-LYBE
Flight info
| Callsign | ODS645 |
|---|---|
| Flight time | 1h 22m |
| Altitude | 32000 |
| Route | VADEN N618 BAKLO DCT XANEX DCT UTEKA DCT OSVIX |
| Aircraft | MD82/M-SDFGIRWY/C |
Departure
| Time | 2026-05-07 18:32 |
|---|---|
| Airport | İstanbul Airport (LTFM) |
Arrival
| Time | 2026-05-07 19:54 |
|---|---|
| Airport | Belgrade Nikola Tesla Airport (LYBE) |
| Time | Latitude | Longitude | Altitude | Speed | Heading |
|---|---|---|---|---|---|
| 2026-05-07 18:01 | 41.26545 | 28.73504 | 331 ft | 0 kts | 71° |
| 2026-05-07 18:20 | 41.26542 | 28.73491 | 331 ft | 0 kts | 71° |
| 2026-05-07 18:21 | 41.26537 | 28.73474 | 331 ft | 2 kts | 63° |
| 2026-05-07 18:21 | 41.26529 | 28.73458 | 331 ft | 2 kts | 52° |
| 2026-05-07 18:21 | 41.26519 | 28.73443 | 331 ft | 2 kts | 42° |
| 2026-05-07 18:21 | 41.26507 | 28.73431 | 331 ft | 2 kts | 32° |
| 2026-05-07 18:22 | 41.26494 | 28.73422 | 331 ft | 2 kts | 22° |
| 2026-05-07 18:22 | 41.26484 | 28.73418 | 331 ft | 2 kts | 15° |
| 2026-05-07 18:22 | 41.26465 | 28.73414 | 331 ft | 2 kts | 2° |
| 2026-05-07 18:22 | 41.26450 | 28.73415 | 331 ft | 2 kts | 352° |
| 2026-05-07 18:23 | 41.26436 | 28.73419 | 331 ft | 1 kts | 342° |
| 2026-05-07 18:23 | 41.26430 | 28.73422 | 331 ft | 0 kts | 340° |
| 2026-05-07 18:27 | 41.26430 | 28.73421 | 331 ft | 0 kts | 340° |
| 2026-05-07 18:27 | 41.26439 | 28.73417 | 331 ft | 3 kts | 340° |
| 2026-05-07 18:28 | 41.26474 | 28.73400 | 331 ft | 6 kts | 340° |
| 2026-05-07 18:28 | 41.26522 | 28.73377 | 331 ft | 8 kts | 341° |
| 2026-05-07 18:28 | 41.26575 | 28.73334 | 331 ft | 9 kts | 301° |
| 2026-05-07 18:28 | 41.26588 | 28.73239 | 331 ft | 11 kts | 270° |
| 2026-05-07 18:29 | 41.26587 | 28.73125 | 331 ft | 13 kts | 269° |
| 2026-05-07 18:29 | 41.26586 | 28.73003 | 331 ft | 12 kts | 269° |
| 2026-05-07 18:29 | 41.26585 | 28.72933 | 331 ft | 0 kts | 269° |
| 2026-05-07 18:30 | 41.26585 | 28.72929 | 331 ft | 1 kts | 269° |
| 2026-05-07 18:30 | 41.26585 | 28.72874 | 331 ft | 11 kts | 269° |
| 2026-05-07 18:30 | 41.26583 | 28.72728 | 331 ft | 17 kts | 269° |
| 2026-05-07 18:31 | 41.26586 | 28.72574 | 331 ft | 15 kts | 289° |
| 2026-05-07 18:31 | 41.26654 | 28.72517 | 331 ft | 0 kts | 355° |
| 2026-05-07 18:32 | 41.26677 | 28.72515 | 331 ft | 18 kts | 357° |
| 2026-05-07 18:32 | 41.27094 | 28.72500 | 331 ft | 96 kts | 359° |
| 2026-05-07 18:32 | 41.28154 | 28.72474 | 453 ft | 194 kts | 357° |
| 2026-05-07 18:32 | 41.29493 | 28.72505 | 1317 ft | 185 kts | 5° |
| 2026-05-07 18:33 | 41.30423 | 28.72832 | 2588 ft | 142 kts | 15° |
| 2026-05-07 18:33 | 41.31577 | 28.73370 | 2293 ft | 199 kts | 4° |
| 2026-05-07 18:33 | 41.33001 | 28.73293 | 2602 ft | 215 kts | 354° |
| 2026-05-07 18:33 | 41.34581 | 28.73181 | 2865 ft | 237 kts | 354° |
| 2026-05-07 18:34 | 41.36322 | 28.73073 | 3058 ft | 259 kts | 354° |
| 2026-05-07 18:34 | 41.38061 | 28.72515 | 3591 ft | 258 kts | 331° |
| 2026-05-07 18:34 | 41.39451 | 28.71116 | 4156 ft | 255 kts | 308° |
| 2026-05-07 18:34 | 41.40407 | 28.69110 | 4722 ft | 256 kts | 301° |
| 2026-05-07 18:35 | 41.41334 | 28.67083 | 5231 ft | 260 kts | 300° |
| 2026-05-07 18:35 | 41.42265 | 28.65038 | 5760 ft | 263 kts | 300° |
| 2026-05-07 18:35 | 41.43216 | 28.62940 | 6296 ft | 265 kts | 300° |
| 2026-05-07 18:35 | 41.44163 | 28.60851 | 6819 ft | 267 kts | 300° |
| 2026-05-07 18:36 | 41.45121 | 28.58730 | 7307 ft | 270 kts | 301° |
| 2026-05-07 18:36 | 41.46090 | 28.56589 | 7785 ft | 271 kts | 301° |
| 2026-05-07 18:36 | 41.47071 | 28.54414 | 8239 ft | 275 kts | 301° |
| 2026-05-07 18:36 | 41.48062 | 28.52218 | 8744 ft | 276 kts | 301° |
| 2026-05-07 18:37 | 41.49052 | 28.50022 | 9210 ft | 279 kts | 301° |
| 2026-05-07 18:37 | 41.50043 | 28.47825 | 9670 ft | 280 kts | 301° |
| 2026-05-07 18:37 | 41.51055 | 28.45579 | 10111 ft | 283 kts | 301° |
| 2026-05-07 18:37 | 41.52092 | 28.43278 | 10240 ft | 296 kts | 301° |
| 2026-05-07 18:38 | 41.53173 | 28.40881 | 10259 ft | 310 kts | 301° |
| 2026-05-07 18:38 | 41.54301 | 28.38380 | 10300 ft | 320 kts | 301° |
| 2026-05-07 18:38 | 41.55466 | 28.35794 | 10342 ft | 328 kts | 301° |
| 2026-05-07 18:38 | 41.56651 | 28.33166 | 10566 ft | 329 kts | 300° |
| 2026-05-07 18:39 | 41.57837 | 28.30537 | 10778 ft | 331 kts | 301° |
| 2026-05-07 18:39 | 41.59030 | 28.27894 | 10992 ft | 332 kts | 300° |
| 2026-05-07 18:39 | 41.60228 | 28.25240 | 11191 ft | 334 kts | 301° |
| 2026-05-07 18:39 | 41.61429 | 28.22581 | 11409 ft | 334 kts | 301° |
| 2026-05-07 18:40 | 41.62625 | 28.19934 | 11568 ft | 336 kts | 300° |
| 2026-05-07 18:40 | 41.63834 | 28.17260 | 11819 ft | 335 kts | 300° |
| 2026-05-07 18:40 | 41.65056 | 28.14557 | 11933 ft | 338 kts | 301° |
| 2026-05-07 18:40 | 41.66261 | 28.11891 | 12134 ft | 338 kts | 301° |
| 2026-05-07 18:41 | 41.67493 | 28.09171 | 12345 ft | 338 kts | 301° |
| 2026-05-07 18:41 | 41.68715 | 28.06472 | 12476 ft | 340 kts | 301° |
| 2026-05-07 18:41 | 41.69930 | 28.03788 | 12623 ft | 341 kts | 301° |
| 2026-05-07 18:41 | 41.71170 | 28.01054 | 12770 ft | 342 kts | 301° |
| 2026-05-07 18:42 | 41.72395 | 27.98351 | 12898 ft | 342 kts | 301° |
| 2026-05-07 18:42 | 41.73593 | 27.95710 | 13014 ft | 316 kts | 301° |
| 2026-05-07 18:42 | 41.74705 | 27.93265 | 13572 ft | 305 kts | 301° |
| 2026-05-07 18:42 | 41.75784 | 27.90888 | 14120 ft | 297 kts | 301° |
| 2026-05-07 18:43 | 41.76839 | 27.88564 | 14698 ft | 289 kts | 301° |
| 2026-05-07 18:43 | 41.77872 | 27.86292 | 15228 ft | 283 kts | 301° |
| 2026-05-07 18:43 | 41.78891 | 27.84049 | 15709 ft | 280 kts | 301° |
| 2026-05-07 18:43 | 41.79891 | 27.81850 | 16115 ft | 281 kts | 301° |
| 2026-05-07 18:44 | 41.80941 | 27.79544 | 16355 ft | 295 kts | 302° |
| 2026-05-07 18:44 | 41.82019 | 27.77176 | 16855 ft | 301 kts | 302° |
| 2026-05-07 18:44 | 41.83102 | 27.74785 | 17405 ft | 304 kts | 301° |
| 2026-05-07 18:44 | 41.84179 | 27.72356 | 18005 ft | 306 kts | 301° |
| 2026-05-07 18:45 | 41.85266 | 27.69900 | 18601 ft | 307 kts | 301° |
| 2026-05-07 18:45 | 41.86350 | 27.67451 | 19190 ft | 308 kts | 301° |
| 2026-05-07 18:45 | 41.87450 | 27.64962 | 19792 ft | 308 kts | 301° |
| 2026-05-07 18:45 | 41.88538 | 27.62497 | 20380 ft | 309 kts | 301° |
| 2026-05-07 18:46 | 41.89618 | 27.60049 | 20960 ft | 308 kts | 301° |
| 2026-05-07 18:46 | 41.90711 | 27.57572 | 21550 ft | 307 kts | 301° |
| 2026-05-07 18:46 | 41.91800 | 27.55102 | 22145 ft | 306 kts | 301° |
| 2026-05-07 18:46 | 41.92871 | 27.52673 | 22732 ft | 304 kts | 301° |
| 2026-05-07 18:47 | 41.93944 | 27.50240 | 23293 ft | 302 kts | 301° |
| 2026-05-07 18:47 | 41.95011 | 27.47820 | 23776 ft | 303 kts | 301° |
| 2026-05-07 18:47 | 41.96084 | 27.45389 | 24153 ft | 307 kts | 301° |
| 2026-05-07 18:47 | 41.97182 | 27.42902 | 24549 ft | 311 kts | 301° |
| 2026-05-07 18:48 | 41.98281 | 27.40412 | 24939 ft | 314 kts | 301° |
| 2026-05-07 18:48 | 41.99408 | 27.37859 | 25335 ft | 317 kts | 301° |
| 2026-05-07 18:48 | 42.00523 | 27.35333 | 25722 ft | 320 kts | 301° |
| 2026-05-07 18:48 | 42.01665 | 27.32747 | 26123 ft | 323 kts | 300° |
| 2026-05-07 18:49 | 42.02823 | 27.30127 | 26522 ft | 326 kts | 300° |
| 2026-05-07 18:49 | 42.03969 | 27.27536 | 26915 ft | 328 kts | 300° |
| 2026-05-07 18:49 | 42.05149 | 27.24869 | 27317 ft | 330 kts | 300° |
| 2026-05-07 18:49 | 42.06322 | 27.22218 | 27713 ft | 332 kts | 300° |
| 2026-05-07 18:50 | 42.07598 | 27.19641 | 28100 ft | 334 kts | 311° |
| 2026-05-07 18:50 | 42.09175 | 27.17361 | 28530 ft | 334 kts | 311° |
| 2026-05-07 18:50 | 42.10758 | 27.15029 | 28926 ft | 335 kts | 311° |
| 2026-05-07 18:50 | 42.12313 | 27.12723 | 29325 ft | 336 kts | 310° |
| 2026-05-07 18:51 | 42.13901 | 27.10355 | 29730 ft | 337 kts | 310° |
| 2026-05-07 18:51 | 42.15453 | 27.08031 | 30133 ft | 337 kts | 310° |
| 2026-05-07 18:51 | 42.17032 | 27.05662 | 30548 ft | 337 kts | 310° |
| 2026-05-07 18:51 | 42.18609 | 27.03284 | 30963 ft | 337 kts | 310° |
| 2026-05-07 18:52 | 42.20168 | 27.00931 | 31376 ft | 336 kts | 310° |
| 2026-05-07 18:52 | 42.21723 | 26.98582 | 31774 ft | 335 kts | 310° |
| 2026-05-07 18:52 | 42.23275 | 26.96234 | 32099 ft | 337 kts | 310° |
| 2026-05-07 18:53 | 42.26494 | 26.91355 | 32100 ft | 357 kts | 310° |
| 2026-05-07 18:53 | 42.29885 | 26.86212 | 32107 ft | 376 kts | 310° |
| 2026-05-07 18:54 | 42.33453 | 26.80802 | 32108 ft | 395 kts | 310° |
| 2026-05-07 18:54 | 42.37196 | 26.75124 | 32089 ft | 412 kts | 310° |
| 2026-05-07 18:55 | 42.41052 | 26.69280 | 32077 ft | 425 kts | 310° |
| 2026-05-07 18:55 | 42.45045 | 26.63230 | 32075 ft | 436 kts | 311° |
| 2026-05-07 18:56 | 42.49117 | 26.57065 | 32065 ft | 444 kts | 311° |
| 2026-05-07 18:56 | 42.53243 | 26.50736 | 32056 ft | 449 kts | 307° |
| 2026-05-07 18:57 | 42.56604 | 26.43710 | 32059 ft | 445 kts | 297° |
| 2026-05-07 18:57 | 42.59443 | 26.36324 | 32060 ft | 442 kts | 297° |
| 2026-05-07 18:58 | 42.62288 | 26.28937 | 32073 ft | 441 kts | 296° |
| 2026-05-07 18:58 | 42.65142 | 26.21529 | 32071 ft | 443 kts | 297° |
| 2026-05-07 18:59 | 42.67982 | 26.14171 | 32076 ft | 442 kts | 297° |
| 2026-05-07 18:59 | 42.70848 | 26.06756 | 32086 ft | 440 kts | 297° |
| 2026-05-07 19:00 | 42.73716 | 25.99346 | 32119 ft | 442 kts | 297° |
| 2026-05-07 19:00 | 42.76585 | 25.91946 | 32123 ft | 442 kts | 297° |
| 2026-05-07 19:01 | 42.79444 | 25.84583 | 32107 ft | 443 kts | 297° |
| 2026-05-07 19:01 | 42.82342 | 25.77129 | 32094 ft | 443 kts | 297° |
| 2026-05-07 19:02 | 42.85224 | 25.69728 | 32084 ft | 443 kts | 297° |
| 2026-05-07 19:02 | 42.88122 | 25.62302 | 32084 ft | 445 kts | 297° |
| 2026-05-07 19:03 | 42.91042 | 25.54832 | 32083 ft | 447 kts | 297° |
| 2026-05-07 19:03 | 42.93981 | 25.47326 | 32080 ft | 447 kts | 297° |
| 2026-05-07 19:04 | 42.96870 | 25.39830 | 32077 ft | 447 kts | 296° |
| 2026-05-07 19:04 | 42.99718 | 25.32313 | 32077 ft | 448 kts | 295° |
| 2026-05-07 19:05 | 43.02615 | 25.24662 | 32074 ft | 449 kts | 296° |
| 2026-05-07 19:05 | 43.05479 | 25.17106 | 32074 ft | 450 kts | 296° |
| 2026-05-07 19:06 | 43.08362 | 25.09498 | 32070 ft | 450 kts | 295° |
| 2026-05-07 19:06 | 43.12677 | 24.98108 | 32070 ft | 451 kts | 294° |
| 2026-05-07 19:07 | 43.15219 | 24.90283 | 32070 ft | 449 kts | 291° |
| 2026-05-07 19:07 | 43.17671 | 24.82406 | 32075 ft | 449 kts | 291° |
| 2026-05-07 19:08 | 43.20109 | 24.74535 | 32072 ft | 449 kts | 291° |
| 2026-05-07 19:08 | 43.22560 | 24.66614 | 32074 ft | 450 kts | 291° |
| 2026-05-07 19:09 | 43.24995 | 24.58745 | 32072 ft | 450 kts | 291° |
| 2026-05-07 19:09 | 43.27442 | 24.50844 | 32062 ft | 449 kts | 291° |
| 2026-05-07 19:10 | 43.29881 | 24.42986 | 32062 ft | 449 kts | 291° |
| 2026-05-07 19:10 | 43.32322 | 24.35130 | 32056 ft | 449 kts | 291° |
| 2026-05-07 19:11 | 43.34782 | 24.27229 | 32059 ft | 449 kts | 291° |
| 2026-05-07 19:11 | 43.37244 | 24.19341 | 32057 ft | 448 kts | 291° |
| 2026-05-07 19:12 | 43.39697 | 24.11503 | 32061 ft | 447 kts | 291° |
| 2026-05-07 19:12 | 43.42151 | 24.03671 | 32062 ft | 448 kts | 291° |
| 2026-05-07 19:13 | 43.44622 | 23.95805 | 32055 ft | 449 kts | 291° |
| 2026-05-07 19:13 | 43.47087 | 23.87928 | 32054 ft | 448 kts | 290° |
| 2026-05-07 19:14 | 43.49472 | 23.79991 | 32053 ft | 447 kts | 290° |
| 2026-05-07 19:14 | 43.51828 | 23.72088 | 32053 ft | 447 kts | 290° |
| 2026-05-07 19:15 | 43.54177 | 23.64185 | 32050 ft | 445 kts | 290° |
| 2026-05-07 19:15 | 43.56517 | 23.56302 | 32048 ft | 446 kts | 290° |
| 2026-05-07 19:16 | 43.58871 | 23.48386 | 32051 ft | 445 kts | 290° |
| 2026-05-07 19:16 | 43.61207 | 23.40534 | 32047 ft | 444 kts | 291° |
| 2026-05-07 19:17 | 43.63550 | 23.32672 | 32050 ft | 444 kts | 290° |
| 2026-05-07 19:17 | 43.65918 | 23.24751 | 32049 ft | 444 kts | 290° |
| 2026-05-07 19:18 | 43.68281 | 23.16858 | 32048 ft | 444 kts | 290° |
| 2026-05-07 19:18 | 43.70655 | 23.08945 | 32044 ft | 445 kts | 290° |
| 2026-05-07 19:19 | 43.73007 | 23.01124 | 32060 ft | 443 kts | 290° |
| 2026-05-07 19:19 | 43.75387 | 22.93223 | 32052 ft | 444 kts | 291° |
| 2026-05-07 19:20 | 43.77767 | 22.85350 | 32057 ft | 443 kts | 291° |
| 2026-05-07 19:20 | 43.80100 | 22.77416 | 32037 ft | 442 kts | 290° |
| 2026-05-07 19:21 | 43.82375 | 22.69579 | 32037 ft | 441 kts | 290° |
| 2026-05-07 19:21 | 43.84678 | 22.61644 | 32049 ft | 442 kts | 290° |
| 2026-05-07 19:22 | 43.86949 | 22.53823 | 32048 ft | 444 kts | 290° |
| 2026-05-07 19:22 | 43.89245 | 22.45926 | 32054 ft | 442 kts | 290° |
| 2026-05-07 19:23 | 43.91621 | 22.38102 | 32056 ft | 427 kts | 294° |
| 2026-05-07 19:23 | 43.92932 | 22.34507 | 32046 ft | 412 kts | 294° |
| 2026-05-07 19:23 | 43.94203 | 22.31039 | 32058 ft | 406 kts | 294° |
| 2026-05-07 19:24 | 43.96780 | 22.23940 | 32069 ft | 415 kts | 294° |
| 2026-05-07 19:24 | 43.99337 | 22.16845 | 32067 ft | 416 kts | 294° |
| 2026-05-07 19:25 | 44.01913 | 22.09673 | 32071 ft | 413 kts | 294° |
| 2026-05-07 19:25 | 44.04482 | 22.02505 | 32010 ft | 414 kts | 294° |
| 2026-05-07 19:26 | 44.05761 | 21.98939 | 31368 ft | 412 kts | 294° |
| 2026-05-07 19:26 | 44.07023 | 21.95421 | 30768 ft | 405 kts | 294° |
| 2026-05-07 19:26 | 44.08263 | 21.91966 | 30170 ft | 399 kts | 294° |
| 2026-05-07 19:26 | 44.09496 | 21.88529 | 29588 ft | 395 kts | 294° |
| 2026-05-07 19:27 | 44.10737 | 21.85074 | 29009 ft | 395 kts | 294° |
| 2026-05-07 19:27 | 44.11965 | 21.81658 | 28453 ft | 396 kts | 294° |
| 2026-05-07 19:27 | 44.13183 | 21.78270 | 27904 ft | 396 kts | 294° |
| 2026-05-07 19:27 | 44.14413 | 21.74850 | 27366 ft | 394 kts | 294° |
| 2026-05-07 19:28 | 44.15642 | 21.71441 | 26816 ft | 390 kts | 294° |
| 2026-05-07 19:28 | 44.16845 | 21.68104 | 26286 ft | 386 kts | 294° |
| 2026-05-07 19:28 | 44.18044 | 21.64781 | 25747 ft | 382 kts | 294° |
| 2026-05-07 19:28 | 44.19230 | 21.61495 | 25224 ft | 379 kts | 295° |
| 2026-05-07 19:29 | 44.20417 | 21.58216 | 24703 ft | 376 kts | 295° |
| 2026-05-07 19:29 | 44.21590 | 21.54974 | 24188 ft | 374 kts | 294° |
| 2026-05-07 19:29 | 44.22761 | 21.51739 | 23680 ft | 372 kts | 295° |
| 2026-05-07 19:29 | 44.23915 | 21.48554 | 23177 ft | 364 kts | 295° |
| 2026-05-07 19:30 | 44.25032 | 21.45475 | 22673 ft | 356 kts | 295° |
| 2026-05-07 19:30 | 44.26137 | 21.42435 | 22171 ft | 348 kts | 295° |
| 2026-05-07 19:30 | 44.27218 | 21.39463 | 21670 ft | 342 kts | 295° |
| 2026-05-07 19:30 | 44.28291 | 21.36512 | 21161 ft | 335 kts | 295° |
| 2026-05-07 19:31 | 44.29333 | 21.33646 | 20665 ft | 330 kts | 294° |
| 2026-05-07 19:31 | 44.30336 | 21.30823 | 20173 ft | 324 kts | 293° |
| 2026-05-07 19:31 | 44.31320 | 21.28037 | 19684 ft | 320 kts | 293° |
| 2026-05-07 19:31 | 44.32304 | 21.25242 | 19183 ft | 316 kts | 289° |
| 2026-05-07 19:32 | 44.32910 | 21.22349 | 18704 ft | 312 kts | 278° |
| 2026-05-07 19:32 | 44.33153 | 21.19325 | 18241 ft | 310 kts | 274° |
| 2026-05-07 19:32 | 44.33375 | 21.16361 | 17768 ft | 311 kts | 274° |
| 2026-05-07 19:32 | 44.33601 | 21.13374 | 17306 ft | 311 kts | 274° |
| 2026-05-07 19:33 | 44.33835 | 21.10345 | 16839 ft | 309 kts | 274° |
| 2026-05-07 19:33 | 44.34066 | 21.07382 | 16371 ft | 307 kts | 275° |
| 2026-05-07 19:33 | 44.34296 | 21.04457 | 15915 ft | 304 kts | 275° |
| 2026-05-07 19:33 | 44.34530 | 21.01534 | 15450 ft | 301 kts | 275° |
| 2026-05-07 19:34 | 44.34761 | 20.98650 | 14982 ft | 299 kts | 275° |
| 2026-05-07 19:34 | 44.34996 | 20.95747 | 14507 ft | 296 kts | 275° |
| 2026-05-07 19:34 | 44.35228 | 20.92908 | 14048 ft | 294 kts | 275° |
| 2026-05-07 19:34 | 44.35458 | 20.90089 | 13583 ft | 291 kts | 275° |
| 2026-05-07 19:35 | 44.35687 | 20.87306 | 13122 ft | 289 kts | 275° |
| 2026-05-07 19:35 | 44.35916 | 20.84520 | 12641 ft | 287 kts | 275° |
| 2026-05-07 19:35 | 44.36134 | 20.81799 | 12181 ft | 285 kts | 276° |
| 2026-05-07 19:35 | 44.36628 | 20.79111 | 11718 ft | 284 kts | 289° |
| 2026-05-07 19:36 | 44.37544 | 20.76671 | 11261 ft | 285 kts | 302° |
| 2026-05-07 19:36 | 44.38630 | 20.74360 | 10798 ft | 284 kts | 301° |
| 2026-05-07 19:36 | 44.39704 | 20.72055 | 10330 ft | 282 kts | 300° |
| 2026-05-07 19:36 | 44.40760 | 20.69773 | 9860 ft | 281 kts | 300° |
| 2026-05-07 19:37 | 44.41816 | 20.67465 | 9381 ft | 279 kts | 300° |
| 2026-05-07 19:37 | 44.42858 | 20.65197 | 8916 ft | 277 kts | 300° |
| 2026-05-07 19:37 | 44.43892 | 20.62939 | 8438 ft | 276 kts | 300° |
| 2026-05-07 19:37 | 44.44926 | 20.60685 | 7962 ft | 275 kts | 300° |
| 2026-05-07 19:38 | 44.45951 | 20.58444 | 7486 ft | 274 kts | 300° |
| 2026-05-07 19:38 | 44.46981 | 20.56188 | 7067 ft | 270 kts | 300° |
| 2026-05-07 19:38 | 44.47942 | 20.54045 | 7028 ft | 256 kts | 299° |
| 2026-05-07 19:38 | 44.48890 | 20.51925 | 7030 ft | 260 kts | 300° |
| 2026-05-07 19:39 | 44.49880 | 20.49713 | 7042 ft | 267 kts | 299° |
| 2026-05-07 19:39 | 44.50990 | 20.47649 | 7031 ft | 275 kts | 318° |
| 2026-05-07 19:39 | 44.52709 | 20.46372 | 7048 ft | 282 kts | 342° |
| 2026-05-07 19:39 | 44.54639 | 20.46182 | 7046 ft | 275 kts | 6° |
| 2026-05-07 19:40 | 44.56393 | 20.47030 | 7017 ft | 262 kts | 31° |
| 2026-05-07 19:40 | 44.57843 | 20.48452 | 7018 ft | 248 kts | 33° |
| 2026-05-07 19:40 | 44.59159 | 20.49995 | 7026 ft | 251 kts | 49° |
| 2026-05-07 19:40 | 44.60062 | 20.52115 | 7053 ft | 254 kts | 73° |
| 2026-05-07 19:41 | 44.60241 | 20.54483 | 7050 ft | 239 kts | 104° |
| 2026-05-07 19:41 | 44.59527 | 20.56585 | 6997 ft | 254 kts | 132° |
| 2026-05-07 19:41 | 44.58458 | 20.58595 | 6832 ft | 259 kts | 129° |
| 2026-05-07 19:41 | 44.57437 | 20.60589 | 6625 ft | 243 kts | 129° |
| 2026-05-07 19:42 | 44.56495 | 20.62466 | 6397 ft | 230 kts | 128° |
| 2026-05-07 19:42 | 44.55608 | 20.64257 | 6153 ft | 220 kts | 128° |
| 2026-05-07 19:42 | 44.54743 | 20.66014 | 5933 ft | 219 kts | 128° |
| 2026-05-07 19:42 | 44.53867 | 20.67793 | 5736 ft | 221 kts | 128° |
| 2026-05-07 19:43 | 44.52994 | 20.69563 | 5547 ft | 223 kts | 128° |
| 2026-05-07 19:43 | 44.52108 | 20.71362 | 5349 ft | 223 kts | 127° |
| 2026-05-07 19:43 | 44.51228 | 20.73145 | 5130 ft | 224 kts | 120° |
| 2026-05-07 19:43 | 44.50951 | 20.75262 | 4971 ft | 223 kts | 83° |
| 2026-05-07 19:44 | 44.51581 | 20.77203 | 4980 ft | 222 kts | 47° |
| 2026-05-07 19:44 | 44.52816 | 20.78463 | 5006 ft | 223 kts | 28° |
| 2026-05-07 19:44 | 44.54169 | 20.79580 | 4988 ft | 225 kts | 29° |
| 2026-05-07 19:44 | 44.55513 | 20.80697 | 4981 ft | 225 kts | 30° |
| 2026-05-07 19:45 | 44.56880 | 20.81732 | 4967 ft | 223 kts | 17° |
| 2026-05-07 19:45 | 44.58400 | 20.81842 | 4985 ft | 217 kts | 345° |
| 2026-05-07 19:45 | 44.59721 | 20.80885 | 4977 ft | 213 kts | 314° |
| 2026-05-07 19:45 | 44.60574 | 20.79211 | 4975 ft | 212 kts | 297° |
| 2026-05-07 19:46 | 44.61327 | 20.77432 | 4787 ft | 209 kts | 298° |
| 2026-05-07 19:46 | 44.62062 | 20.75707 | 4563 ft | 199 kts | 299° |
| 2026-05-07 19:46 | 44.62756 | 20.74087 | 4346 ft | 190 kts | 299° |
| 2026-05-07 19:46 | 44.63431 | 20.72517 | 4114 ft | 184 kts | 299° |
| 2026-05-07 19:47 | 44.64088 | 20.70995 | 3897 ft | 182 kts | 300° |
| 2026-05-07 19:47 | 44.64749 | 20.69472 | 3708 ft | 184 kts | 300° |
| 2026-05-07 19:47 | 44.65412 | 20.67948 | 3570 ft | 183 kts | 300° |
| 2026-05-07 19:47 | 44.66072 | 20.66440 | 3435 ft | 178 kts | 300° |
| 2026-05-07 19:48 | 44.66721 | 20.64955 | 3227 ft | 177 kts | 300° |
| 2026-05-07 19:48 | 44.67363 | 20.63491 | 3028 ft | 177 kts | 300° |
| 2026-05-07 19:48 | 44.68002 | 20.62040 | 2972 ft | 173 kts | 300° |
| 2026-05-07 19:48 | 44.68647 | 20.60608 | 2985 ft | 175 kts | 299° |
| 2026-05-07 19:49 | 44.69281 | 20.59126 | 2990 ft | 176 kts | 300° |
| 2026-05-07 19:49 | 44.69917 | 20.57640 | 2983 ft | 177 kts | 299° |
| 2026-05-07 19:49 | 44.70531 | 20.56208 | 2964 ft | 168 kts | 299° |
| 2026-05-07 19:49 | 44.71135 | 20.54853 | 2957 ft | 164 kts | 301° |
| 2026-05-07 19:50 | 44.71762 | 20.53462 | 3006 ft | 174 kts | 301° |
| 2026-05-07 19:50 | 44.72421 | 20.51986 | 3007 ft | 177 kts | 300° |
| 2026-05-07 19:50 | 44.73079 | 20.50527 | 2995 ft | 177 kts | 301° |
| 2026-05-07 19:50 | 44.73737 | 20.49068 | 2996 ft | 176 kts | 301° |
| 2026-05-07 19:51 | 44.74414 | 20.47595 | 2931 ft | 184 kts | 302° |
| 2026-05-07 19:51 | 44.75097 | 20.46145 | 2710 ft | 172 kts | 301° |
| 2026-05-07 19:51 | 44.75745 | 20.44755 | 2234 ft | 174 kts | 301° |
| 2026-05-07 19:51 | 44.76366 | 20.43325 | 1799 ft | 170 kts | 301° |
| 2026-05-07 19:52 | 44.76949 | 20.41944 | 1540 ft | 155 kts | 300° |
| 2026-05-07 19:52 | 44.77511 | 20.40735 | 1365 ft | 143 kts | 303° |
| 2026-05-07 19:52 | 44.78027 | 20.39580 | 1152 ft | 136 kts | 301° |
| 2026-05-07 19:52 | 44.78516 | 20.38492 | 968 ft | 132 kts | 300° |
| 2026-05-07 19:53 | 44.79010 | 20.37332 | 846 ft | 145 kts | 301° |
| 2026-05-07 19:53 | 44.79562 | 20.36086 | 889 ft | 152 kts | 302° |
| 2026-05-07 19:53 | 44.80106 | 20.34832 | 763 ft | 149 kts | 299° |
| 2026-05-07 19:53 | 44.80644 | 20.33620 | 569 ft | 143 kts | 303° |
| 2026-05-07 19:54 | 44.81171 | 20.32453 | 379 ft | 137 kts | 300° |
| 2026-05-07 19:54 | 44.81635 | 20.31384 | 340 ft | 111 kts | 301° |
| 2026-05-07 19:54 | 44.81950 | 20.30678 | 340 ft | 61 kts | 301° |
| 2026-05-07 19:54 | 44.82100 | 20.30325 | 340 ft | 26 kts | 299° |
| 2026-05-07 19:55 | 44.82161 | 20.30097 | 340 ft | 23 kts | 278° |
| 2026-05-07 19:55 | 44.82171 | 20.29877 | 340 ft | 21 kts | 271° |
| 2026-05-07 19:55 | 44.82143 | 20.29689 | 340 ft | 18 kts | 229° |
| 2026-05-07 19:55 | 44.82043 | 20.29594 | 340 ft | 16 kts | 211° |
| 2026-05-07 19:56 | 44.81965 | 20.29590 | 340 ft | 0 kts | 127° |
| 2026-05-07 19:56 | 44.81958 | 20.29602 | 340 ft | 0 kts | 124° |